Glacier National Park, MT

6:55 AM MDT on August 29, 2016 (GMT -0600)
Cut Bank Municipal | | Change Station

Elev 3855 ft 48.61 °N, 112.38 °W | Updated 59 minutes ago

Clear
Clear
46 °F
Feels Like 46 °F
N
0
Wind Variable Wind from North

Today
High -- | Low -- °F
--% Chance of Precip.
Yesterday
High -- | Low -- °F
Precip. -- in
Pressure 30.21 in
Visibility 10.0 miles
Clouds Clear
Dew Point 41 °F
Humidity 83%
Rainfall 0.00 in
Snow Depth Not available.
6:47 AM 8:20 PM
Waning Crescent, 9% visible
METAR KCTB 291156Z AUTO 00000KT 10SM CLR 08/05 A3024 RMK AO2 SLP229 T00780050 10122 20072 58000
Pressure 30.21 in
Visibility 10.0 miles
Clouds Clear
Dew Point 41 °F
Humidity 83%
Rainfall 0.00 in
Snow Depth Not available.
6:47 AM 8:20 PM
Waning Crescent, 9% visible
METAR KCTB 291156Z AUTO 00000KT 10SM CLR 08/05 A3024 RMK AO2 SLP229 T00780050 10122 20072 58000

10-Day Weather Forecast

Almanac

Astronomy

Aug. 29, 2016 Rise Set
Actual Time
Civil Twilight
Nautical Twilight
Astronomical Twilight
Moon
Length of Visible Light
Length of Day
Tomorrow will be .
, % of the Moon is Illuminated

Today's Extremes

State Highs State Lows

Community

WunderPhotos

Upload Photos

1,935,810 photos uploaded!

WunderBlog® & News

Nearby

Air Quality

  Air Quality AQ Index Pollutant
Not available.

Snow Depth

Station Depth Elevation

Earthquake Activity

City Distance Mag. Time & Date
Minimum magnitude displayed is 2.5.

Coastal Water Temperatures

Place Temperature

Stations

Nearby Weather Stations

Station Location Temp. Windchill Dew Point Humidity Wind Precip. Elev Updated Type
                   

Watches & Warnings

There are currently no watches in effect.